sensor_id;sensor_type;location;lat;lon;timestamp;temperature;humidity
5027;DHT22;2532;52.480;13.354;2023-07-13T04:02:54;20.80;90.50
5027;DHT22;2532;52.480;13.354;2023-07-13T04:05:21;20.70;90.40
5027;DHT22;2532;52.480;13.354;2023-07-13T04:07:48;20.70;90.30
5027;DHT22;2532;52.480;13.354;2023-07-13T04:10:15;20.70;90.10
5027;DHT22;2532;52.480;13.354;2023-07-13T04:12:42;20.70;89.60
5027;DHT22;2532;52.480;13.354;2023-07-13T04:15:09;20.60;89.40
5027;DHT22;2532;52.480;13.354;2023-07-13T04:17:36;20.50;89.40
5027;DHT22;2532;52.480;13.354;2023-07-13T04:20:06;20.50;89.80
5027;DHT22;2532;52.480;13.354;2023-07-13T04:22:33;20.40;90.10
5027;DHT22;2532;52.480;13.354;2023-07-13T04:25:00;20.40;90.30
5027;DHT22;2532;52.480;13.354;2023-07-13T04:27:27;20.30;90.50
5027;DHT22;2532;52.480;13.354;2023-07-13T04:29:54;20.30;90.70
5027;DHT22;2532;52.480;13.354;2023-07-13T04:32:21;20.30;90.70
5027;DHT22;2532;52.480;13.354;2023-07-13T04:34:48;20.40;90.80
5027;DHT22;2532;52.480;13.354;2023-07-13T04:37:20;20.40;90.90
5027;DHT22;2532;52.480;13.354;2023-07-13T04:39:47;20.30;90.90
5027;DHT22;2532;52.480;13.354;2023-07-13T04:42:14;20.30;91.00
5027;DHT22;2532;52.480;13.354;2023-07-13T04:44:41;20.40;91.00
5027;DHT22;2532;52.480;13.354;2023-07-13T04:47:08;20.40;91.10
5027;DHT22;2532;52.480;13.354;2023-07-13T04:49:35;20.40;91.10
5027;DHT22;2532;52.480;13.354;2023-07-13T04:52:02;20.40;91.20
5027;DHT22;2532;52.480;13.354;2023-07-13T04:54:30;20.40;91.40
5027;DHT22;2532;52.480;13.354;2023-07-13T04:56:57;20.40;91.20
5027;DHT22;2532;52.480;13.354;2023-07-13T04:59:24;20.40;91.40
5027;DHT22;2532;52.480;13.354;2023-07-13T05:01:51;20.40;91.40
5027;DHT22;2532;52.480;13.354;2023-07-13T05:04:18;20.50;91.30
5027;DHT22;2532;52.480;13.354;2023-07-13T05:06:45;20.50;91.30
5027;DHT22;2532;52.480;13.354;2023-07-13T05:09:12;20.50;91.30
5027;DHT22;2532;52.480;13.354;2023-07-13T05:11:40;20.50;91.30
5027;DHT22;2532;52.480;13.354;2023-07-13T05:14:07;20.60;91.50
5027;DHT22;2532;52.480;13.354;2023-07-13T05:16:35;20.70;91.70
5027;DHT22;2532;52.480;13.354;2023-07-13T05:19:02;20.70;91.30
5027;DHT22;2532;52.480;13.354;2023-07-13T05:21:29;20.80;91.30
5027;DHT22;2532;52.480;13.354;2023-07-13T05:23:56;20.90;91.20
5027;DHT22;2532;52.480;13.354;2023-07-13T05:26:23;21.00;91.20
5027;DHT22;2532;52.480;13.354;2023-07-13T05:28:51;21.00;91.10
5027;DHT22;2532;52.480;13.354;2023-07-13T05:31:18;21.00;90.90
5027;DHT22;2532;52.480;13.354;2023-07-13T05:33:45;21.10;91.20
5027;DHT22;2532;52.480;13.354;2023-07-13T05:36:12;21.10;90.80
5027;DHT22;2532;52.480;13.354;2023-07-13T05:38:39;21.20;90.70
5027;DHT22;2532;52.480;13.354;2023-07-13T05:41:06;21.20;90.50
5027;DHT22;2532;52.480;13.354;2023-07-13T05:43:33;21.20;90.50
5027;DHT22;2532;52.480;13.354;2023-07-13T05:46:02;21.10;90.50
5027;DHT22;2532;52.480;13.354;2023-07-13T05:48:29;21.10;90.40
5027;DHT22;2532;52.480;13.354;2023-07-13T05:50:55;21.10;90.70
5027;DHT22;2532;52.480;13.354;2023-07-13T05:53:22;21.10;90.60
5027;DHT22;2532;52.480;13.354;2023-07-13T05:55:49;21.10;90.50
5027;DHT22;2532;52.480;13.354;2023-07-13T05:58:18;21.20;90.60
5027;DHT22;2532;52.480;13.354;2023-07-13T06:00:46;21.20;90.70
5027;DHT22;2532;52.480;13.354;2023-07-13T06:03:15;21.20;90.50
5027;DHT22;2532;52.480;13.354;2023-07-13T06:05:42;21.30;90.60
5027;DHT22;2532;52.480;13.354;2023-07-13T06:08:09;21.40;90.40
5027;DHT22;2532;52.480;13.354;2023-07-13T06:10:37;21.40;90.40
5027;DHT22;2532;52.480;13.354;2023-07-13T06:13:04;21.50;90.10
5027;DHT22;2532;52.480;13.354;2023-07-13T06:15:31;21.60;90.10
5027;DHT22;2532;52.480;13.354;2023-07-13T06:17:58;21.60;90.00
5027;DHT22;2532;52.480;13.354;2023-07-13T06:20:26;21.70;90.00
5027;DHT22;2532;52.480;13.354;2023-07-13T06:22:54;21.70;89.70
5027;DHT22;2532;52.480;13.354;2023-07-13T06:25:21;21.70;89.90
5027;DHT22;2532;52.480;13.354;2023-07-13T06:27:48;21.70;90.00
5027;DHT22;2532;52.480;13.354;2023-07-13T06:30:15;21.80;90.00
5027;DHT22;2532;52.480;13.354;2023-07-13T06:32:42;21.90;88.80
5027;DHT22;2532;52.480;13.354;2023-07-13T06:35:09;21.90;88.90
5027;DHT22;2532;52.480;13.354;2023-07-13T06:37:39;22.00;88.60
5027;DHT22;2532;52.480;13.354;2023-07-13T06:40:07;22.00;88.00
5027;DHT22;2532;52.480;13.354;2023-07-13T06:42:34;22.10;88.10
5027;DHT22;2532;52.480;13.354;2023-07-13T06:45:01;22.10;87.70
5027;DHT22;2532;52.480;13.354;2023-07-13T06:47:28;22.20;87.60
5027;DHT22;2532;52.480;13.354;2023-07-13T06:49:56;22.30;87.50
5027;DHT22;2532;52.480;13.354;2023-07-13T06:52:23;22.40;86.50
5027;DHT22;2532;52.480;13.354;2023-07-13T06:54:51;22.50;85.90
5027;DHT22;2532;52.480;13.354;2023-07-13T06:57:18;22.50;85.10
5027;DHT22;2532;52.480;13.354;2023-07-13T06:59:45;22.60;84.90
5027;DHT22;2532;52.480;13.354;2023-07-13T07:02:14;22.60;84.60
5027;DHT22;2532;52.480;13.354;2023-07-13T07:04:43;22.70;83.90
5027;DHT22;2532;52.480;13.354;2023-07-13T07:07:10;22.70;83.80
5027;DHT22;2532;52.480;13.354;2023-07-13T07:09:37;22.80;83.60
5027;DHT22;2532;52.480;13.354;2023-07-13T07:12:07;22.80;83.60
5027;DHT22;2532;52.480;13.354;2023-07-13T07:14:34;22.90;83.50
5027;DHT22;2532;52.480;13.354;2023-07-13T07:17:01;23.00;82.60
5027;DHT22;2532;52.480;13.354;2023-07-13T07:19:29;23.00;81.90
5027;DHT22;2532;52.480;13.354;2023-07-13T07:21:56;23.10;81.70
5027;DHT22;2532;52.480;13.354;2023-07-13T07:24:23;23.10;81.60
5027;DHT22;2532;52.480;13.354;2023-07-13T07:26:50;23.20;82.00
5027;DHT22;2532;52.480;13.354;2023-07-13T07:29:18;23.30;82.00
5027;DHT22;2532;52.480;13.354;2023-07-13T07:31:45;23.40;81.50
5027;DHT22;2532;52.480;13.354;2023-07-13T07:34:12;23.50;81.90
5027;DHT22;2532;52.480;13.354;2023-07-13T07:36:39;23.60;79.90
5027;DHT22;2532;52.480;13.354;2023-07-13T07:39:06;23.70;79.20
5027;DHT22;2532;52.480;13.354;2023-07-13T07:41:33;23.80;78.60
5027;DHT22;2532;52.480;13.354;2023-07-13T07:44:00;23.90;79.10
5027;DHT22;2532;52.480;13.354;2023-07-13T07:46:28;23.90;78.20
5027;DHT22;2532;52.480;13.354;2023-07-13T07:48:55;24.00;79.70
5027;DHT22;2532;52.480;13.354;2023-07-13T07:51:23;24.00;79.50
5027;DHT22;2532;52.480;13.354;2023-07-13T07:53:50;24.00;78.10
5027;DHT22;2532;52.480;13.354;2023-07-13T07:56:17;24.00;78.60
5027;DHT22;2532;52.480;13.354;2023-07-13T07:58:44;24.10;78.60
5027;DHT22;2532;52.480;13.354;2023-07-13T08:01:11;24.10;77.80
5027;DHT22;2532;52.480;13.354;2023-07-13T08:03:39;24.20;77.20
5027;DHT22;2532;52.480;13.354;2023-07-13T08:06:06;24.20;77.10
5027;DHT22;2532;52.480;13.354;2023-07-13T08:08:34;24.10;76.40
5027;DHT22;2532;52.480;13.354;2023-07-13T08:11:02;24.10;76.60
5027;DHT22;2532;52.480;13.354;2023-07-13T08:13:30;24.10;76.40
5027;DHT22;2532;52.480;13.354;2023-07-13T08:15:57;24.10;76.40
5027;DHT22;2532;52.480;13.354;2023-07-13T08:18:24;24.20;76.20
5027;DHT22;2532;52.480;13.354;2023-07-13T08:20:52;24.20;74.60
5027;DHT22;2532;52.480;13.354;2023-07-13T08:23:22;24.30;73.80
5027;DHT22;2532;52.480;13.354;2023-07-13T08:25:51;24.30;73.30
5027;DHT22;2532;52.480;13.354;2023-07-13T08:28:19;24.30;73.10
5027;DHT22;2532;52.480;13.354;2023-07-13T08:30:45;24.50;73.60
5027;DHT22;2532;52.480;13.354;2023-07-13T08:33:14;24.60;73.30
5027;DHT22;2532;52.480;13.354;2023-07-13T08:35:41;24.60;73.30
5027;DHT22;2532;52.480;13.354;2023-07-13T08:38:09;24.60;73.10
5027;DHT22;2532;52.480;13.354;2023-07-13T08:40:36;24.60;73.00
5027;DHT22;2532;52.480;13.354;2023-07-13T08:43:03;24.60;73.00
5027;DHT22;2532;52.480;13.354;2023-07-13T08:45:36;24.70;74.10
5027;DHT22;2532;52.480;13.354;2023-07-13T08:48:10;24.70;72.70
5027;DHT22;2532;52.480;13.354;2023-07-13T08:50:46;24.70;73.10
5027;DHT22;2532;52.480;13.354;2023-07-13T08:53:17;24.80;72.00
5027;DHT22;2532;52.480;13.354;2023-07-13T08:55:45;24.80;71.00
5027;DHT22;2532;52.480;13.354;2023-07-13T08:58:13;24.70;71.00
5027;DHT22;2532;52.480;13.354;2023-07-13T09:00:47;24.60;70.40
5027;DHT22;2532;52.480;13.354;2023-07-13T09:03:20;24.60;69.60
5027;DHT22;2532;52.480;13.354;2023-07-13T09:05:52;24.70;69.90
5027;DHT22;2532;52.480;13.354;2023-07-13T09:08:41;24.70;70.10
5027;DHT22;2532;52.480;13.354;2023-07-13T09:11:23;24.70;69.90
5027;DHT22;2532;52.480;13.354;2023-07-13T09:13:59;24.70;69.80
5027;DHT22;2532;52.480;13.354;2023-07-13T09:16:27;24.80;69.40
5027;DHT22;2532;52.480;13.354;2023-07-13T09:18:59;24.70;69.10
5027;DHT22;2532;52.480;13.354;2023-07-13T09:21:30;24.80;68.70
5027;DHT22;2532;52.480;13.354;2023-07-13T09:24:04;24.80;68.50
5027;DHT22;2532;52.480;13.354;2023-07-13T09:26:39;24.90;67.30
5027;DHT22;2532;52.480;13.354;2023-07-13T09:29:12;25.00;68.20
5027;DHT22;2532;52.480;13.354;2023-07-13T09:31:45;25.00;66.70
5027;DHT22;2532;52.480;13.354;2023-07-13T09:34:14;25.10;66.90
5027;DHT22;2532;52.480;13.354;2023-07-13T09:36:41;25.10;66.70
5027;DHT22;2532;52.480;13.354;2023-07-13T09:39:14;25.20;67.30
5027;DHT22;2532;52.480;13.354;2023-07-13T09:41:45;25.30;63.70
5027;DHT22;2532;52.480;13.354;2023-07-13T09:44:16;25.30;61.20
5027;DHT22;2532;52.480;13.354;2023-07-13T09:46:45;25.40;62.90
5027;DHT22;2532;52.480;13.354;2023-07-13T09:49:13;25.40;61.70
5027;DHT22;2532;52.480;13.354;2023-07-13T09:51:42;25.40;60.50
5027;DHT22;2532;52.480;13.354;2023-07-13T09:54:20;25.40;61.40
5027;DHT22;2532;52.480;13.354;2023-07-13T09:56:47;25.50;60.40
5027;DHT22;2532;52.480;13.354;2023-07-13T09:59:21;25.50;60.40
5027;DHT22;2532;52.480;13.354;2023-07-13T10:01:50;25.50;61.10
5027;DHT22;2532;52.480;13.354;2023-07-13T10:04:19;25.40;61.10
5027;DHT22;2532;52.480;13.354;2023-07-13T10:06:46;25.40;61.30
5027;DHT22;2532;52.480;13.354;2023-07-13T10:09:15;25.30;62.50
5027;DHT22;2532;52.480;13.354;2023-07-13T10:11:44;25.30;62.60
5027;DHT22;2532;52.480;13.354;2023-07-13T10:14:13;25.40;62.80
5027;DHT22;2532;52.480;13.354;2023-07-13T10:16:43;25.50;62.60
5027;DHT22;2532;52.480;13.354;2023-07-13T10:19:14;25.60;62.20
5027;DHT22;2532;52.480;13.354;2023-07-13T10:21:50;25.70;62.00
5027;DHT22;2532;52.480;13.354;2023-07-13T10:24:21;25.70;61.50
5027;DHT22;2532;52.480;13.354;2023-07-13T10:26:54;25.70;61.60
5027;DHT22;2532;52.480;13.354;2023-07-13T10:29:24;25.80;60.40
5027;DHT22;2532;52.480;13.354;2023-07-13T10:31:53;25.80;60.10
5027;DHT22;2532;52.480;13.354;2023-07-13T10:34:23;25.80;59.30
5027;DHT22;2532;52.480;13.354;2023-07-13T10:36:51;25.80;59.70
5027;DHT22;2532;52.480;13.354;2023-07-13T10:39:20;25.80;59.40
5027;DHT22;2532;52.480;13.354;2023-07-13T10:41:52;25.70;60.10
5027;DHT22;2532;52.480;13.354;2023-07-13T10:44:23;25.70;60.00
5027;DHT22;2532;52.480;13.354;2023-07-13T10:46:53;25.80;60.30
5027;DHT22;2532;52.480;13.354;2023-07-13T10:49:21;25.90;59.00
5027;DHT22;2532;52.480;13.354;2023-07-13T10:51:48;26.00;58.30
5027;DHT22;2532;52.480;13.354;2023-07-13T10:54:20;26.10;58.30
5027;DHT22;2532;52.480;13.354;2023-07-13T10:57:05;26.30;57.40
5027;DHT22;2532;52.480;13.354;2023-07-13T10:59:34;26.30;56.90
5027;DHT22;2532;52.480;13.354;2023-07-13T11:02:11;26.40;56.70
5027;DHT22;2532;52.480;13.354;2023-07-13T11:04:43;26.30;57.00
5027;DHT22;2532;52.480;13.354;2023-07-13T11:07:19;26.30;56.70
5027;DHT22;2532;52.480;13.354;2023-07-13T11:09:50;26.30;56.30
5027;DHT22;2532;52.480;13.354;2023-07-13T11:12:52;26.40;56.90
5027;DHT22;2532;52.480;13.354;2023-07-13T11:15:33;26.50;56.10
5027;DHT22;2532;52.480;13.354;2023-07-13T11:18:21;26.60;55.70
5027;DHT22;2532;52.480;13.354;2023-07-13T11:20:49;26.70;55.30
5027;DHT22;2532;52.480;13.354;2023-07-13T11:23:27;26.70;55.70
5027;DHT22;2532;52.480;13.354;2023-07-13T11:25:56;26.70;55.50
5027;DHT22;2532;52.480;13.354;2023-07-13T11:28:31;26.80;55.00
5027;DHT22;2532;52.480;13.354;2023-07-13T11:31:13;26.70;54.40
5027;DHT22;2532;52.480;13.354;2023-07-13T11:34:02;26.80;54.00
5027;DHT22;2532;52.480;13.354;2023-07-13T11:36:35;26.80;55.20
5027;DHT22;2532;52.480;13.354;2023-07-13T11:39:05;26.70;55.50
5027;DHT22;2532;52.480;13.354;2023-07-13T11:41:44;26.70;55.90
5027;DHT22;2532;52.480;13.354;2023-07-13T11:44:15;26.60;55.90
5027;DHT22;2532;52.480;13.354;2023-07-13T11:46:47;26.70;56.80
5027;DHT22;2532;52.480;13.354;2023-07-13T11:49:16;26.70;57.30
5027;DHT22;2532;52.480;13.354;2023-07-13T11:51:44;26.80;55.40
5027;DHT22;2532;52.480;13.354;2023-07-13T11:54:21;27.00;55.30
5027;DHT22;2532;52.480;13.354;2023-07-13T11:56:49;27.10;55.10
5027;DHT22;2532;52.480;13.354;2023-07-13T11:59:18;27.10;53.60
5027;DHT22;2532;52.480;13.354;2023-07-13T12:01:50;27.20;54.00
5027;DHT22;2532;52.480;13.354;2023-07-13T12:04:22;27.30;54.40
5027;DHT22;2532;52.480;13.354;2023-07-13T12:06:55;27.40;53.70
5027;DHT22;2532;52.480;13.354;2023-07-13T12:09:27;27.40;53.40
5027;DHT22;2532;52.480;13.354;2023-07-13T12:11:57;27.40;53.60
5027;DHT22;2532;52.480;13.354;2023-07-13T12:14:27;27.40;54.00
5027;DHT22;2532;52.480;13.354;2023-07-13T12:16:54;27.50;54.00
5027;DHT22;2532;52.480;13.354;2023-07-13T12:19:24;27.50;54.20
5027;DHT22;2532;52.480;13.354;2023-07-13T12:21:55;27.50;54.30
5027;DHT22;2532;52.480;13.354;2023-07-13T12:24:24;27.60;54.10
5027;DHT22;2532;52.480;13.354;2023-07-13T12:26:52;27.50;52.90
5027;DHT22;2532;52.480;13.354;2023-07-13T12:29:20;27.40;52.70
5027;DHT22;2532;52.480;13.354;2023-07-13T12:31:49;27.40;53.20
5027;DHT22;2532;52.480;13.354;2023-07-13T12:34:19;27.40;53.20
5027;DHT22;2532;52.480;13.354;2023-07-13T12:36:48;27.40;53.70
5027;DHT22;2532;52.480;13.354;2023-07-13T12:39:18;27.40;53.70
5027;DHT22;2532;52.480;13.354;2023-07-13T12:41:46;27.40;54.50
5027;DHT22;2532;52.480;13.354;2023-07-13T12:44:16;27.40;53.40
5027;DHT22;2532;52.480;13.354;2023-07-13T12:46:58;27.40;52.90
5027;DHT22;2532;52.480;13.354;2023-07-13T12:49:30;27.40;53.10
5027;DHT22;2532;52.480;13.354;2023-07-13T12:52:02;27.40;52.80
5027;DHT22;2532;52.480;13.354;2023-07-13T12:54:30;27.50;53.10
5027;DHT22;2532;52.480;13.354;2023-07-13T12:56:58;27.60;52.40
5027;DHT22;2532;52.480;13.354;2023-07-13T12:59:31;27.70;51.80
5027;DHT22;2532;52.480;13.354;2023-07-13T13:02:21;27.60;51.70
5027;DHT22;2532;52.480;13.354;2023-07-13T13:04:49;27.60;51.70
5027;DHT22;2532;52.480;13.354;2023-07-13T13:07:16;27.60;52.00
5027;DHT22;2532;52.480;13.354;2023-07-13T13:09:43;27.60;51.60
5027;DHT22;2532;52.480;13.354;2023-07-13T13:12:10;27.60;52.10
5027;DHT22;2532;52.480;13.354;2023-07-13T13:14:37;27.50;52.20
5027;DHT22;2532;52.480;13.354;2023-07-13T13:17:15;27.50;52.80
5027;DHT22;2532;52.480;13.354;2023-07-13T13:19:45;27.50;52.80
5027;DHT22;2532;52.480;13.354;2023-07-13T13:22:14;27.60;53.10
5027;DHT22;2532;52.480;13.354;2023-07-13T13:24:41;27.70;53.00
5027;DHT22;2532;52.480;13.354;2023-07-13T13:27:15;27.80;52.90
5027;DHT22;2532;52.480;13.354;2023-07-13T13:29:43;27.90;52.30
5027;DHT22;2532;52.480;13.354;2023-07-13T13:32:14;27.90;52.20
5027;DHT22;2532;52.480;13.354;2023-07-13T13:34:41;27.90;52.60
5027;DHT22;2532;52.480;13.354;2023-07-13T13:37:26;28.00;52.20
5027;DHT22;2532;52.480;13.354;2023-07-13T13:39:53;28.10;51.00
5027;DHT22;2532;52.480;13.354;2023-07-13T13:42:23;28.10;50.50
5027;DHT22;2532;52.480;13.354;2023-07-13T13:44:52;28.20;50.20
5027;DHT22;2532;52.480;13.354;2023-07-13T13:47:29;28.30;51.40
5027;DHT22;2532;52.480;13.354;2023-07-13T13:49:57;28.30;51.40
5027;DHT22;2532;52.480;13.354;2023-07-13T13:52:24;28.20;51.20
5027;DHT22;2532;52.480;13.354;2023-07-13T13:54:51;28.30;51.10
5027;DHT22;2532;52.480;13.354;2023-07-13T13:57:22;28.30;50.60
5027;DHT22;2532;52.480;13.354;2023-07-13T13:59:50;28.20;51.10
5027;DHT22;2532;52.480;13.354;2023-07-13T14:02:23;28.20;50.90
5027;DHT22;2532;52.480;13.354;2023-07-13T14:04:54;28.20;50.80
5027;DHT22;2532;52.480;13.354;2023-07-13T14:07:21;28.20;51.00
5027;DHT22;2532;52.480;13.354;2023-07-13T14:09:48;28.30;50.60
5027;DHT22;2532;52.480;13.354;2023-07-13T14:12:15;28.40;50.40
5027;DHT22;2532;52.480;13.354;2023-07-13T14:14:42;28.50;50.10
5027;DHT22;2532;52.480;13.354;2023-07-13T14:17:19;28.50;50.20
5027;DHT22;2532;52.480;13.354;2023-07-13T14:19:50;28.60;50.20
5027;DHT22;2532;52.480;13.354;2023-07-13T14:22:22;28.60;49.70
5027;DHT22;2532;52.480;13.354;2023-07-13T14:24:50;28.70;49.70
5027;DHT22;2532;52.480;13.354;2023-07-13T14:27:17;28.60;50.20
5027;DHT22;2532;52.480;13.354;2023-07-13T14:29:44;28.50;50.40
5027;DHT22;2532;52.480;13.354;2023-07-13T14:32:12;28.20;50.60
5027;DHT22;2532;52.480;13.354;2023-07-13T14:34:39;28.10;50.50
5027;DHT22;2532;52.480;13.354;2023-07-13T14:37:12;28.00;50.90
5027;DHT22;2532;52.480;13.354;2023-07-13T14:39:40;28.00;51.10
5027;DHT22;2532;52.480;13.354;2023-07-13T14:42:09;28.10;51.20
5027;DHT22;2532;52.480;13.354;2023-07-13T14:44:37;28.30;51.20
5027;DHT22;2532;52.480;13.354;2023-07-13T14:47:05;28.40;50.30
5027;DHT22;2532;52.480;13.354;2023-07-13T14:49:35;28.40;50.30
5027;DHT22;2532;52.480;13.354;2023-07-13T14:52:08;28.50;50.80
5027;DHT22;2532;52.480;13.354;2023-07-13T14:54:39;28.50;50.70
5027;DHT22;2532;52.480;13.354;2023-07-13T14:57:10;28.60;50.90
5027;DHT22;2532;52.480;13.354;2023-07-13T14:59:37;28.70;50.60
5027;DHT22;2532;52.480;13.354;2023-07-13T15:02:13;28.80;49.80
5027;DHT22;2532;52.480;13.354;2023-07-13T15:04:41;29.00;49.80
5027;DHT22;2532;52.480;13.354;2023-07-13T15:07:10;29.10;49.80
5027;DHT22;2532;52.480;13.354;2023-07-13T15:09:39;29.20;48.60
5027;DHT22;2532;52.480;13.354;2023-07-13T15:12:07;29.40;48.40
5027;DHT22;2532;52.480;13.354;2023-07-13T15:14:34;29.40;47.70
5027;DHT22;2532;52.480;13.354;2023-07-13T15:17:01;29.40;47.90
5027;DHT22;2532;52.480;13.354;2023-07-13T15:19:28;29.50;48.00
5027;DHT22;2532;52.480;13.354;2023-07-13T15:21:56;29.60;47.50
5027;DHT22;2532;52.480;13.354;2023-07-13T15:24:24;29.60;47.10
5027;DHT22;2532;52.480;13.354;2023-07-13T15:26:52;29.60;46.70
5027;DHT22;2532;52.480;13.354;2023-07-13T15:29:20;29.60;46.40
5027;DHT22;2532;52.480;13.354;2023-07-13T15:31:46;29.50;46.30
5027;DHT22;2532;52.480;13.354;2023-07-13T15:34:15;29.50;46.80
5027;DHT22;2532;52.480;13.354;2023-07-13T15:36:42;29.50;46.40
5027;DHT22;2532;52.480;13.354;2023-07-13T15:39:14;29.50;46.50
5027;DHT22;2532;52.480;13.354;2023-07-13T15:41:42;29.60;46.70
5027;DHT22;2532;52.480;13.354;2023-07-13T15:44:25;29.70;47.10
5027;DHT22;2532;52.480;13.354;2023-07-13T15:46:53;29.80;46.90
5027;DHT22;2532;52.480;13.354;2023-07-13T15:49:20;29.90;47.10
5027;DHT22;2532;52.480;13.354;2023-07-13T15:51:47;29.90;47.00
5027;DHT22;2532;52.480;13.354;2023-07-13T15:54:16;30.00;46.70
5027;DHT22;2532;52.480;13.354;2023-07-13T15:56:53;30.20;47.10
5027;DHT22;2532;52.480;13.354;2023-07-13T15:59:22;30.20;46.60
5027;DHT22;2532;52.480;13.354;2023-07-13T16:01:49;30.20;46.50
5027;DHT22;2532;52.480;13.354;2023-07-13T16:04:16;30.10;45.70
5027;DHT22;2532;52.480;13.354;2023-07-13T16:06:45;30.10;44.80
5027;DHT22;2532;52.480;13.354;2023-07-13T16:09:18;30.10;45.30
5027;DHT22;2532;52.480;13.354;2023-07-13T16:11:47;30.00;45.30
5027;DHT22;2532;52.480;13.354;2023-07-13T16:14:15;29.90;45.30
5027;DHT22;2532;52.480;13.354;2023-07-13T16:16:45;30.00;44.80
5027;DHT22;2532;52.480;13.354;2023-07-13T16:19:12;30.10;44.90
5027;DHT22;2532;52.480;13.354;2023-07-13T16:21:43;30.10;45.00
5027;DHT22;2532;52.480;13.354;2023-07-13T16:24:16;30.20;44.40
5027;DHT22;2532;52.480;13.354;2023-07-13T16:26:46;30.30;43.70
5027;DHT22;2532;52.480;13.354;2023-07-13T16:29:15;30.40;43.70
5027;DHT22;2532;52.480;13.354;2023-07-13T16:31:42;30.50;43.50
5027;DHT22;2532;52.480;13.354;2023-07-13T16:34:10;30.60;43.50
5027;DHT22;2532;52.480;13.354;2023-07-13T16:36:37;30.80;43.80
5027;DHT22;2532;52.480;13.354;2023-07-13T16:39:13;30.80;43.60
5027;DHT22;2532;52.480;13.354;2023-07-13T16:41:41;30.80;43.90
5027;DHT22;2532;52.480;13.354;2023-07-13T16:44:11;30.50;43.90
5027;DHT22;2532;52.480;13.354;2023-07-13T16:46:39;30.30;44.30
5027;DHT22;2532;52.480;13.354;2023-07-13T16:49:21;29.90;44.50
5027;DHT22;2532;52.480;13.354;2023-07-13T16:51:48;29.50;45.60
5027;DHT22;2532;52.480;13.354;2023-07-13T16:54:16;29.20;45.60
5027;DHT22;2532;52.480;13.354;2023-07-13T16:56:44;28.90;46.10
5027;DHT22;2532;52.480;13.354;2023-07-13T16:59:14;28.70;46.60
5027;DHT22;2532;52.480;13.354;2023-07-13T17:01:42;28.40;46.80
5027;DHT22;2532;52.480;13.354;2023-07-13T17:04:09;28.20;47.10
5027;DHT22;2532;52.480;13.354;2023-07-13T17:06:38;28.10;47.50
5027;DHT22;2532;52.480;13.354;2023-07-13T17:09:09;27.80;47.60
5027;DHT22;2532;52.480;13.354;2023-07-13T17:11:39;27.60;48.00
5027;DHT22;2532;52.480;13.354;2023-07-13T17:14:12;27.40;49.80
5027;DHT22;2532;52.480;13.354;2023-07-13T17:16:46;26.80;52.60
5027;DHT22;2532;52.480;13.354;2023-07-13T17:19:14;26.10;55.10
5027;DHT22;2532;52.480;13.354;2023-07-13T17:21:43;25.50;57.70
5027;DHT22;2532;52.480;13.354;2023-07-13T17:24:17;24.80;60.00
5027;DHT22;2532;52.480;13.354;2023-07-13T17:26:45;24.10;62.50
5027;DHT22;2532;52.480;13.354;2023-07-13T17:29:12;23.60;64.30
5027;DHT22;2532;52.480;13.354;2023-07-13T17:31:39;23.30;65.60
5027;DHT22;2532;52.480;13.354;2023-07-13T17:34:10;23.00;66.20
5027;DHT22;2532;52.480;13.354;2023-07-13T17:36:37;22.70;68.20
5027;DHT22;2532;52.480;13.354;2023-07-13T17:39:12;22.40;68.90
5027;DHT22;2532;52.480;13.354;2023-07-13T17:41:39;22.10;70.20
5027;DHT22;2532;52.480;13.354;2023-07-13T17:44:09;22.00;71.00
5027;DHT22;2532;52.480;13.354;2023-07-13T17:46:36;21.80;72.00
5027;DHT22;2532;52.480;13.354;2023-07-13T17:49:03;21.70;73.60
5027;DHT22;2532;52.480;13.354;2023-07-13T17:51:31;21.60;73.80
5027;DHT22;2532;52.480;13.354;2023-07-13T17:54:01;21.50;74.40
5027;DHT22;2532;52.480;13.354;2023-07-13T17:56:29;21.40;74.80
5027;DHT22;2532;52.480;13.354;2023-07-13T17:58:57;21.40;76.10
5027;DHT22;2532;52.480;13.354;2023-07-13T18:01:25;21.30;76.40
5027;DHT22;2532;52.480;13.354;2023-07-13T18:03:52;21.20;77.20
5027;DHT22;2532;52.480;13.354;2023-07-13T18:06:26;21.30;78.10
5027;DHT22;2532;52.480;13.354;2023-07-13T18:08:56;21.20;78.80
5027;DHT22;2532;52.480;13.354;2023-07-13T18:11:24;21.20;79.20
5027;DHT22;2532;52.480;13.354;2023-07-13T18:13:53;21.30;78.20
5027;DHT22;2532;52.480;13.354;2023-07-13T18:16:23;21.30;78.30
5027;DHT22;2532;52.480;13.354;2023-07-13T18:18:53;21.30;78.60
5027;DHT22;2532;52.480;13.354;2023-07-13T18:21:20;21.30;78.40
5027;DHT22;2532;52.480;13.354;2023-07-13T18:23:48;21.30;78.90
5027;DHT22;2532;52.480;13.354;2023-07-13T18:26:17;21.40;79.30
5027;DHT22;2532;52.480;13.354;2023-07-13T18:28:45;21.40;79.40
5027;DHT22;2532;52.480;13.354;2023-07-13T18:31:16;21.40;79.40
5027;DHT22;2532;52.480;13.354;2023-07-13T18:33:45;21.50;78.90
5027;DHT22;2532;52.480;13.354;2023-07-13T18:36:14;21.50;78.30
5027;DHT22;2532;52.480;13.354;2023-07-13T18:38:43;21.50;78.70
5027;DHT22;2532;52.480;13.354;2023-07-13T18:41:11;21.50;78.90
5027;DHT22;2532;52.480;13.354;2023-07-13T18:43:38;21.60;79.20
5027;DHT22;2532;52.480;13.354;2023-07-13T18:46:15;21.60;78.80
5027;DHT22;2532;52.480;13.354;2023-07-13T18:48:44;21.60;78.20
5027;DHT22;2532;52.480;13.354;2023-07-13T18:51:12;21.70;78.70
5027;DHT22;2532;52.480;13.354;2023-07-13T18:53:39;21.60;78.90
5027;DHT22;2532;52.480;13.354;2023-07-13T18:56:06;21.60;78.60
5027;DHT22;2532;52.480;13.354;2023-07-13T18:58:36;21.60;78.90
5027;DHT22;2532;52.480;13.354;2023-07-13T19:01:05;21.60;79.00
5027;DHT22;2532;52.480;13.354;2023-07-13T19:03:34;21.60;78.00
5027;DHT22;2532;52.480;13.354;2023-07-13T19:06:03;21.70;78.40
5027;DHT22;2532;52.480;13.354;2023-07-13T19:08:31;21.70;78.20
5027;DHT22;2532;52.480;13.354;2023-07-13T19:10:58;21.70;78.20
5027;DHT22;2532;52.480;13.354;2023-07-13T19:13:28;21.70;78.10
5027;DHT22;2532;52.480;13.354;2023-07-13T19:15:59;21.70;78.10
5027;DHT22;2532;52.480;13.354;2023-07-13T19:18:26;21.60;78.20
5027;DHT22;2532;52.480;13.354;2023-07-13T19:20:58;21.60;78.50
5027;DHT22;2532;52.480;13.354;2023-07-13T19:23:28;21.50;78.60
5027;DHT22;2532;52.480;13.354;2023-07-13T19:26:01;21.50;79.30
5027;DHT22;2532;52.480;13.354;2023-07-13T19:28:32;21.50;79.70
5027;DHT22;2532;52.480;13.354;2023-07-13T19:31:02;21.50;79.70
5027;DHT22;2532;52.480;13.354;2023-07-13T19:33:29;21.40;79.70
5027;DHT22;2532;52.480;13.354;2023-07-13T19:35:57;21.50;79.90
5027;DHT22;2532;52.480;13.354;2023-07-13T19:38:27;21.50;79.40
5027;DHT22;2532;52.480;13.354;2023-07-13T19:40:54;21.50;76.80
5027;DHT22;2532;52.480;13.354;2023-07-13T19:43:21;21.50;77.00
5027;DHT22;2532;52.480;13.354;2023-07-13T19:45:48;21.60;77.10
5027;DHT22;2532;52.480;13.354;2023-07-13T19:48:15;21.50;77.30
5027;DHT22;2532;52.480;13.354;2023-07-13T19:50:43;21.50;78.40
5027;DHT22;2532;52.480;13.354;2023-07-13T19:53:17;21.50;79.80
5027;DHT22;2532;52.480;13.354;2023-07-13T19:55:45;21.50;80.40
5027;DHT22;2532;52.480;13.354;2023-07-13T19:58:12;21.40;80.60
5027;DHT22;2532;52.480;13.354;2023-07-13T20:00:40;21.40;80.80